X  Sluiten METAR luchtvaart weer gegevens         LYNI Nis Airport
Temperatuur
55°F Temperatuur
41°F Dauwpunt
58% Vochtigheid



Wind
3 MPH
6 KM/U
1 M/S
3 KTS



190°
Z
Huidig weer

Mostly Sunny Grotendeels zonnig
Luchtdruk 1014 (hPa) - 29.94 (inHg)
Zicht 6 (mijl) - 10 (km)
Vliegveld
Vliegveld code LYNI

Locatie : Nis Airport
Afstand: 63 (mi)

Metar:
METAR LYNI 241000Z 19003KT 140V240 9999 FEW050 13/05 Q1014 NOSIG

Tijd: 24-02-2024 11:00 CET